Time;durP1;ratioP1;P1;durP2;ratioP2;P2;SDS_P1;SDS_P2;PMS_P1;PMS_P2;Temp;Humidity;BMP_temperature;BMP_pressure;BME280_temperature;BME280_humidity;BME280_pressure;Samples;Min_cycle;Max_cycle;Signal;HPM_P1;HPM_P2
2023/07/29 00:01:12;;;;;;;13.57;10.88;;;;;;;17.40;100.00;100663.31;5004066;28;20045;-80
2023/07/29 00:03:40;;;;;;;16.33;10.85;;;;;;;17.42;100.00;100657.94;5002285;28;20056;-79
2023/07/29 00:06:09;;;;;;;11.77;10.27;;;;;;;17.44;100.00;100658.78;4990527;28;20047;-79
2023/07/29 00:08:37;;;;;;;13.35;11.05;;;;;;;17.45;100.00;100649.88;4998003;28;20061;-79
2023/07/29 00:11:05;;;;;;;13.27;10.65;;;;;;;17.46;100.00;100656.94;5019029;28;20053;-79
2023/07/29 00:13:32;;;;;;;13.63;11.57;;;;;;;17.47;100.00;100656.91;4974427;28;20392;-79
2023/07/29 00:15:59;;;;;;;12.75;10.68;;;;;;;17.48;100.00;100645.31;5001452;28;20057;-78
2023/07/29 00:18:27;;;;;;;12.30;10.18;;;;;;;17.49;100.00;100647.06;5009717;28;20047;-80
2023/07/29 00:20:55;;;;;;;11.70;10.50;;;;;;;17.50;100.00;100639.94;4993465;28;20054;-80
2023/07/29 00:23:23;;;;;;;12.52;10.40;;;;;;;17.52;100.00;100644.34;4998925;28;20056;-80
2023/07/29 00:25:51;;;;;;;15.80;10.48;;;;;;;17.53;100.00;100635.41;5004955;28;20042;-78
2023/07/29 00:28:19;;;;;;;14.95;10.18;;;;;;;17.55;100.00;100638.03;4964364;28;20061;-78
2023/07/29 00:30:49;;;;;;;13.25;11.07;;;;;;;17.57;100.00;100627.34;4974444;28;20170;-80
2023/07/29 00:33:17;;;;;;;12.75;10.27;;;;;;;17.57;100.00;100627.34;4987322;28;20050;-79
2023/07/29 00:35:45;;;;;;;12.40;10.40;;;;;;;17.59;100.00;100622.84;4995933;28;20038;-78
2023/07/29 00:38:12;;;;;;;12.52;10.35;;;;;;;17.60;100.00;100628.13;4987812;28;20064;-79
2023/07/29 00:40:39;;;;;;;12.75;9.98;;;;;;;17.61;100.00;100619.19;5011016;28;20061;-78
2023/07/29 00:43:07;;;;;;;11.60;9.88;;;;;;;17.63;100.00;100616.50;4964010;28;20062;-79
2023/07/29 00:45:36;;;;;;;13.98;10.98;;;;;;;17.64;100.00;100607.59;5010258;28;20491;-80
2023/07/29 00:48:04;;;;;;;12.50;10.00;;;;;;;17.65;100.00;100612.00;5007233;28;20049;-79
2023/07/29 00:50:33;;;;;;;10.85;9.73;;;;;;;17.66;100.00;100611.09;5009482;28;20060;-78
2023/07/29 00:53:01;;;;;;;11.93;9.60;;;;;;;17.67;100.00;100605.69;4996702;28;20069;-79
2023/07/29 00:55:31;;;;;;;12.18;10.13;;;;;;;17.68;100.00;100604.78;5004830;28;20054;-78
2023/07/29 00:57:59;;;;;;;11.07;9.98;;;;;;;17.69;100.00;100600.31;4972265;28;20073;-80
2023/07/29 01:00:27;;;;;;;12.13;9.00;;;;;;;17.69;100.00;100606.53;5029344;28;20053;-79
2023/07/29 01:02:54;;;;;;;13.52;9.20;;;;;;;17.69;100.00;100600.31;5005795;28;20050;-79
2023/07/29 01:05:26;;;;;;;13.40;8.82;;;;;;;17.70;100.00;100592.28;4998071;28;20054;-79
2023/07/29 01:07:54;;;;;;;10.75;9.65;;;;;;;17.71;100.00;100595.81;4997099;28;20055;-79
2023/07/29 01:10:34;;;;;;;;;;;;;;;17.70;100.00;100592.28;4987578;28;20050;-78
2023/07/29 01:13:13;;;;;;;10.73;9.63;;;;;;;17.71;100.00;100593.16;5007895;28;19921;-80
2023/07/29 01:15:54;;;;;;;9.68;8.23;;;;;;;17.71;100.00;100590.47;4980852;28;20065;-78
2023/07/29 01:18:30;;;;;;;11.70;8.77;;;;;;;17.71;100.00;100588.72;4998110;28;20053;-79
2023/07/29 01:21:02;;;;;;;11.05;9.07;;;;;;;17.72;100.00;100587.78;5012455;28;20049;-79
2023/07/29 01:23:31;;;;;;;10.68;8.55;;;;;;;17.74;100.00;100587.72;5014215;28;20058;-79
2023/07/29 01:26:00;;;;;;;9.85;8.85;;;;;;;17.76;100.00;100588.56;5037283;28;20046;-78
2023/07/29 01:28:28;;;;;;;12.55;9.27;;;;;;;17.75;100.00;100589.50;4995913;28;20058;-78
2023/07/29 01:31:27;;;;;;;11.25;9.38;;;;;;;17.75;100.00;100586.81;4981473;28;20068;-79
2023/07/29 01:34:21;;;;;;;16.17;9.13;;;;;;;17.77;100.00;100584.09;5010706;28;20384;-78
2023/07/29 01:36:51;;;;;;;9.98;8.50;;;;;;;17.77;100.00;100586.75;5005691;28;20046;-78
2023/07/29 01:39:22;;;;;;;9.52;8.52;;;;;;;17.75;100.00;100568.16;5007224;28;20053;-79
2023/07/29 01:41:50;;;;;;;12.43;9.35;;;;;;;17.75;100.00;100573.50;5008944;28;20054;-78
2023/07/29 01:44:19;;;;;;;11.70;8.18;;;;;;;17.75;100.00;100578.84;5002700;28;20518;-78
2023/07/29 01:46:47;;;;;;;9.15;8.15;;;;;;;17.75;100.00;100573.50;4988952;28;20823;-79
2023/07/29 01:49:14;;;;;;;8.93;7.93;;;;;;;17.73;100.00;100567.31;4992074;28;20458;-79
2023/07/29 01:51:42;;;;;;;12.23;8.35;;;;;;;17.72;100.00;100576.25;5017148;28;20440;-79
2023/07/29 01:54:09;;;;;;;10.77;8.52;;;;;;;17.70;100.00;100575.44;5017609;28;20054;-79
2023/07/29 01:56:37;;;;;;;9.00;8.13;;;;;;;17.69;100.00;100565.66;4995910;28;20581;-79
2023/07/29 01:59:04;;;;;;;11.77;8.68;;;;;;;17.66;100.00;100564.00;5012371;28;20050;-79
2023/07/29 02:01:32;;;;;;;12.57;8.48;;;;;;;17.64;100.00;100572.97;4980910;28;20054;-79
2023/07/29 02:04:00;;;;;;;9.60;7.70;;;;;;;17.60;100.00;100574.84;4990946;28;20050;-79
2023/07/29 02:06:27;;;;;;;9.40;8.35;;;;;;;17.56;100.00;100569.63;4996956;28;20046;-78
2023/07/29 02:08:55;;;;;;;8.82;7.25;;;;;;;17.53;100.00;100567.94;4988063;28;20213;-80
2023/07/29 02:11:27;;;;;;;10.52;8.43;;;;;;;17.50;100.00;100574.25;4989635;28;20562;-80
2023/07/29 02:13:56;;;;;;;9.98;8.25;;;;;;;17.47;100.00;100579.66;4977538;28;20049;-78
2023/07/29 02:16:23;;;;;;;9.93;8.25;;;;;;;17.44;100.00;100574.41;5015099;28;20387;-78
2023/07/29 02:18:51;;;;;;;9.82;8.35;;;;;;;17.39;100.00;100571.03;4979550;28;20773;-78
2023/07/29 02:21:22;;;;;;;11.27;8.48;;;;;;;17.35;100.00;100574.66;5016017;28;20064;-78
2023/07/29 02:23:50;;;;;;;12.73;8.27;;;;;;;17.32;100.00;100572.97;5015251;28;20041;-79
2023/07/29 02:26:19;;;;;;;12.80;9.30;;;;;;;17.29;100.00;100573.06;5025630;28;20054;-79
2023/07/29 02:28:46;;;;;;;12.00;8.57;;;;;;;17.25;100.00;100570.53;4989815;28;20581;-79
2023/07/29 02:31:19;;;;;;;10.07;8.15;;;;;;;17.23;100.00;100572.38;5029472;28;20551;-79
2023/07/29 02:33:47;;;;;;;9.57;8.27;;;;;;;17.19;100.00;100568.06;4999064;28;20356;-78
2023/07/29 02:36:16;;;;;;;10.52;8.70;;;;;;;17.17;100.00;100572.56;4998255;28;20412;-79
2023/07/29 02:38:44;;;;;;;10.25;7.80;;;;;;;17.15;100.00;100572.59;5001754;28;20412;-78
2023/07/29 02:41:12;;;;;;;10.48;8.85;;;;;;;17.13;100.00;100561.13;5030425;28;20045;-79
2023/07/29 02:43:42;;;;;;;11.05;7.95;;;;;;;17.10;100.00;100570.06;4990701;28;20054;-78
2023/07/29 02:46:10;;;;;;;11.00;9.37;;;;;;;17.08;100.00;100563.91;5000340;28;20519;-79
2023/07/29 02:48:37;;;;;;;13.23;8.73;;;;;;;17.06;100.00;100563.06;4986726;28;20305;-78
2023/07/29 02:51:04;;;;;;;14.50;8.50;;;;;;;17.04;100.00;100564.03;5002018;28;20662;-78
2023/07/29 02:53:32;;;;;;;11.10;8.30;;;;;;;17.01;100.00;100569.44;5000339;28;20068;-78
2023/07/29 02:55:59;;;;;;;10.93;8.82;;;;;;;16.99;100.00;100558.84;4997820;28;20038;-78
2023/07/29 02:58:27;;;;;;;10.50;8.70;;;;;;;16.98;100.00;100554.44;5009777;28;20054;-78
2023/07/29 03:01:05;;;;;;;13.43;9.50;;;;;;;16.95;100.00;100562.50;4995285;28;20054;-78
2023/07/29 03:03:33;;;;;;;9.98;7.95;;;;;;;16.92;100.00;100562.59;4998956;28;20069;-79
2023/07/29 03:06:03;;;;;;;11.80;8.82;;;;;;;16.90;100.00;100552.00;5004761;28;20061;-79
2023/07/29 03:08:31;;;;;;;12.23;8.70;;;;;;;16.88;100.00;100563.56;5022129;28;20049;-79
2023/07/29 03:10:59;;;;;;;11.27;8.45;;;;;;;16.87;100.00;100568.03;5016475;28;20053;-79
2023/07/29 03:13:26;;;;;;;9.68;8.35;;;;;;;16.84;100.00;100562.81;5007029;28;20061;-79
2023/07/29 03:15:54;;;;;;;12.02;8.65;;;;;;;16.84;100.00;100564.59;5015644;28;20069;-79
2023/07/29 03:18:23;;;;;;;13.40;9.18;;;;;;;16.81;100.00;100560.19;5008597;28;20055;-79
2023/07/29 03:20:50;;;;;;;11.00;8.70;;;;;;;16.78;100.00;100557.59;4966617;28;20046;-80
2023/07/29 03:23:18;;;;;;;12.10;9.32;;;;;;;16.75;100.00;100560.38;5002590;28;20058;-78
2023/07/29 03:25:48;;;;;;;14.30;10.73;;;;;;;16.74;100.00;100556.81;4996056;28;20065;-78
2023/07/29 03:28:16;;;;;;;13.70;10.45;;;;;;;16.72;100.00;100553.31;4974328;28;20057;-80
2023/07/29 03:30:43;;;;;;;13.23;9.90;;;;;;;16.70;100.00;100544.50;5013337;28;20042;-78
2023/07/29 03:33:11;;;;;;;10.57;9.27;;;;;;;16.69;100.00;100549.88;5015546;28;20056;-78
2023/07/29 03:35:38;;;;;;;11.60;9.05;;;;;;;16.67;100.00;100543.72;4974130;28;20416;-78
2023/07/29 03:38:06;;;;;;;13.63;9.15;;;;;;;16.64;100.00;100538.50;5019931;28;20050;-77
2023/07/29 03:40:33;;;;;;;9.88;8.15;;;;;;;16.63;100.00;100542.06;4990511;28;20054;-78
2023/07/29 03:43:01;;;;;;;9.90;8.13;;;;;;;16.61;100.00;100534.13;5007387;28;20046;-78
2023/07/29 03:45:28;;;;;;;12.35;8.23;;;;;;;16.60;100.00;100543.03;5004545;28;20066;-79
2023/07/29 03:47:58;;;;;;;8.95;7.60;;;;;;;16.56;100.00;100533.38;4989027;28;20443;-79
2023/07/29 03:50:26;;;;;;;13.68;8.43;;;;;;;16.55;100.00;100543.13;4970755;28;20058;-79
2023/07/29 03:52:53;;;;;;;9.52;8.10;;;;;;;16.54;100.00;100544.06;4965052;28;20049;-78
2023/07/29 03:55:21;;;;;;;11.65;8.48;;;;;;;16.54;100.00;100540.50;5011031;28;20058;-79
2023/07/29 03:57:49;;;;;;;11.57;8.73;;;;;;;16.52;100.00;100542.34;4992340;28;20053;-78
2023/07/29 04:00:17;;;;;;;10.50;8.32;;;;;;;16.50;100.00;100536.19;5003135;28;20050;-80
2023/07/29 04:02:48;;;;;;;10.30;8.25;;;;;;;16.48;100.00;100533.59;4981206;28;20050;-78
2023/07/29 04:05:16;;;;;;;16.17;9.80;;;;;;;16.47;100.00;100537.16;4962099;28;20064;-78
2023/07/29 04:07:44;;;;;;;17.65;9.60;;;;;;;16.46;100.00;100538.03;5008900;28;20399;-78
2023/07/29 04:10:11;;;;;;;11.48;8.32;;;;;;;16.47;100.00;100533.63;5008508;28;20057;-78
2023/07/29 04:12:39;;;;;;;10.45;8.25;;;;;;;16.47;100.00;100537.16;4975384;28;20046;-80
2023/07/29 04:15:07;;;;;;;12.40;8.57;;;;;;;16.47;100.00;100530.97;5001727;28;20054;-78
2023/07/29 04:17:34;;;;;;;13.05;8.10;;;;;;;16.48;100.00;100527.38;5008375;28;20506;-79
2023/07/29 04:20:04;;;;;;;13.55;8.02;;;;;;;16.49;100.00;100526.47;4979793;28;20072;-78
2023/07/29 04:22:34;;;;;;;9.25;7.88;;;;;;;16.51;100.00;100537.94;4993454;28;20081;-79
2023/07/29 04:25:02;;;;;;;11.32;7.53;;;;;;;16.52;100.00;100526.38;4991649;28;20492;-79
2023/07/29 04:27:29;;;;;;;10.48;7.35;;;;;;;16.54;100.00;100537.84;5009274;28;20393;-78
2023/07/29 04:29:57;;;;;;;9.60;6.50;;;;;;;16.56;100.00;100528.06;5008242;28;20423;-79
2023/07/29 04:32:25;;;;;;;9.98;7.57;;;;;;;16.58;100.00;100528.91;4997617;28;20049;-79
2023/07/29 04:34:53;;;;;;;10.35;7.45;;;;;;;16.62;100.00;100529.69;5006561;28;20058;-78
2023/07/29 04:37:20;;;;;;;12.60;8.32;;;;;;;16.65;100.00;100527.78;4975391;28;20042;-80
2023/07/29 04:39:48;;;;;;;12.98;7.72;;;;;;;16.67;100.00;100525.09;5011251;28;20054;-78
2023/07/29 04:42:15;;;;;;;10.18;7.03;;;;;;;16.72;100.00;100523.19;4988834;28;20068;-78
2023/07/29 04:44:43;;;;;;;9.30;7.15;;;;;;;16.72;100.00;100526.72;4975963;28;20050;-79
2023/07/29 04:47:10;;;;;;;8.25;6.07;;;;;;;16.75;100.00;100521.31;4999558;28;20057;-78
2023/07/29 04:49:38;;;;;;;12.00;7.60;;;;;;;16.82;100.00;100523.81;5010125;28;20045;-79
2023/07/29 04:52:06;;;;;;;10.55;5.90;;;;;;;16.86;100.00;100522.84;4982959;28;20058;-78
2023/07/29 04:54:33;;;;;;;8.50;6.45;;;;;;;17.08;100.00;100525.78;4997432;28;20060;-80
2023/07/29 04:57:01;;;;;;;6.20;5.47;;;;;;;17.40;100.00;100516.81;5010464;28;20050;-80
2023/07/29 04:59:28;;;;;;;8.52;5.25;;;;;;;17.64;100.00;100515.19;4993818;28;20069;-80
2023/07/29 05:01:56;;;;;;;13.05;5.20;;;;;;;18.00;100.00;100506.97;4991562;28;20050;-78
2023/07/29 05:04:28;;;;;;;6.47;4.40;;;;;;;18.54;100.00;100502.47;5017518;28;20069;-78
2023/07/29 05:06:56;;;;;;;6.38;4.68;;;;;;;19.01;100.00;100507.91;4994103;28;20046;-78
2023/07/29 05:09:24;;;;;;;5.65;3.80;;;;;;;19.19;100.00;100514.38;4968487;28;20050;-78
2023/07/29 05:11:54;;;;;;;4.57;3.92;;;;;;;19.50;100.00;100512.31;4993300;28;20050;-79
2023/07/29 05:14:22;;;;;;;4.38;3.97;;;;;;;19.93;100.00;100516.00;4991517;28;20047;-79
2023/07/29 05:16:50;;;;;;;5.22;3.42;;;;;;;20.15;100.00;100522.19;4986630;28;20062;-78
2023/07/29 05:19:17;;;;;;;4.38;3.50;;;;;;;20.16;100.00;100515.88;5003363;28;20419;-80
2023/07/29 05:21:45;;;;;;;4.15;3.17;;;;;;;20.01;100.00;100516.53;5013942;28;20089;-78
2023/07/29 05:24:12;;;;;;;5.13;3.22;;;;;;;19.84;100.00;100522.56;4967144;28;20392;-79
2023/07/29 05:26:40;;;;;;;4.47;3.30;;;;;;;19.67;100.00;100523.22;4986794;28;20062;-78
2023/07/29 05:29:07;;;;;;;6.95;3.22;;;;;;;19.48;100.00;100515.91;5002959;28;20061;-78
2023/07/29 05:31:34;;;;;;;5.53;3.22;;;;;;;19.28;100.00;100524.72;5001035;28;20054;-78
2023/07/29 05:34:02;;;;;;;4.00;2.83;;;;;;;19.14;100.00;100518.16;5013521;28;20120;-78
2023/07/29 05:36:30;;;;;;;5.22;3.25;;;;;;;18.99;100.00;100517.78;5026400;28;20071;-78
2023/07/29 05:38:58;;;;;;;4.53;2.78;;;;;;;18.85;100.00;100509.44;4986959;28;20034;-80
2023/07/29 05:41:27;;;;;;;6.55;3.28;;;;;;;18.70;100.00;100517.00;4981204;28;20057;-80
2023/07/29 05:43:56;;;;;;;5.25;3.45;;;;;;;18.59;100.00;100508.50;5011823;28;20042;-79
2023/07/29 05:46:23;;;;;;;5.00;3.30;;;;;;;18.48;100.00;100527.56;5026060;28;20057;-79
2023/07/29 05:48:51;;;;;;;3.05;2.75;;;;;;;18.42;100.00;100526.91;5027163;28;20106;-80
2023/07/29 05:51:19;;;;;;;2.88;2.50;;;;;;;18.32;100.00;100523.69;4995438;28;20446;-78
2023/07/29 05:53:46;;;;;;;4.93;2.63;;;;;;;18.24;100.00;100525.72;4998631;28;20473;-80
2023/07/29 05:56:14;;;;;;;5.95;3.03;;;;;;;18.20;100.00;100526.75;4962461;28;20522;-78
2023/07/29 05:58:41;;;;;;;6.88;2.90;;;;;;;18.15;100.00;100523.38;5019089;28;20506;-79
2023/07/29 06:01:09;;;;;;;5.30;3.05;;;;;;;18.11;100.00;100522.63;4998199;28;20047;-79
2023/07/29 06:03:36;;;;;;;7.18;3.08;;;;;;;18.07;100.00;100535.19;4985574;28;20427;-78
2023/07/29 06:06:04;;;;;;;3.33;2.75;;;;;;;18.06;100.00;100536.09;4998562;28;20061;-79
2023/07/29 06:08:34;;;;;;;4.22;2.72;;;;;;;18.06;100.00;100540.56;4996701;28;20046;-78
2023/07/29 06:11:02;;;;;;;4.75;3.13;;;;;;;18.03;100.00;100532.66;4972911;28;20061;-78
2023/07/29 06:13:29;;;;;;;4.78;3.13;;;;;;;18.03;100.00;100535.31;4994965;28;20057;-79
2023/07/29 06:15:57;;;;;;;8.93;3.25;;;;;;;18.01;100.00;100546.03;5012532;28;20057;-79
2023/07/29 06:18:25;;;;;;;3.42;2.92;;;;;;;17.99;100.00;100550.53;5009466;28;20042;-79
2023/07/29 06:20:53;;;;;;;4.88;2.97;;;;;;;18.02;100.00;100541.59;5011890;28;20056;-80
2023/07/29 06:23:20;;;;;;;9.15;2.67;;;;;;;18.03;100.00;100552.19;5007469;28;20046;-78
2023/07/29 06:25:48;;;;;;;7.05;2.75;;;;;;;18.01;100.00;100555.81;4994245;28;20056;-78
2023/07/29 06:28:15;;;;;;;8.77;2.90;;;;;;;17.99;100.00;100560.34;4987763;28;20474;-79
2023/07/29 06:30:43;;;;;;;4.10;2.65;;;;;;;17.98;100.00;100555.94;4994796;28;20423;-78
2023/07/29 06:33:10;;;;;;;5.90;2.70;;;;;;;18.01;100.00;100561.16;4991400;28;20053;-78
2023/07/29 06:35:38;;;;;;;4.30;2.78;;;;;;;18.03;100.00;100549.50;4999164;28;20056;-78
2023/07/29 06:38:05;;;;;;;3.97;3.05;;;;;;;18.10;100.00;100556.41;4994496;28;20057;-78
2023/07/29 06:40:33;;;;;;;4.50;2.83;;;;;;;18.14;100.00;100551.84;4995766;28;20080;-78
2023/07/29 06:43:00;;;;;;;2.53;2.30;;;;;;;18.15;100.00;100550.94;4981199;28;20054;-79
2023/07/29 06:45:28;;;;;;;5.15;3.28;;;;;;;18.20;100.00;100548.97;5007101;28;20042;-79
2023/07/29 06:47:56;;;;;;;5.00;2.60;;;;;;;18.31;100.00;100545.94;5018637;28;20491;-78
2023/07/29 06:50:24;;;;;;;3.30;2.90;;;;;;;18.43;100.00;100544.66;4993280;28;20050;-78
2023/07/29 06:52:51;;;;;;;7.72;2.67;;;;;;;18.55;100.00;100544.25;5000132;28;20068;-79
2023/07/29 06:55:18;;;;;;;5.13;2.55;;;;;;;18.69;100.00;100544.66;5010721;28;20042;-78
2023/07/29 06:57:46;;;;;;;3.53;2.15;;;;;;;18.97;100.00;100545.47;4985241;28;20053;-79
2023/07/29 07:00:13;;;;;;;3.58;2.90;;;;;;;19.14;100.00;100550.19;5007716;28;20046;-78
2023/07/29 07:02:42;;;;;;;4.07;2.95;;;;;;;19.23;100.00;100544.50;5008107;28;20053;-78
2023/07/29 07:05:10;;;;;;;4.80;2.47;;;;;;;19.28;100.00;100542.53;5011096;28;20072;-78
2023/07/29 07:07:37;;;;;;;4.75;2.83;;;;;;;19.29;100.00;100539.78;5016034;28;20057;-78
2023/07/29 07:10:06;;;;;;;7.40;2.70;;;;;;;19.32;100.00;100536.16;5011654;28;20046;-78
2023/07/29 07:12:33;;;;;;;5.80;2.72;;;;;;;19.33;100.00;100545.03;5012244;28;20054;-79
2023/07/29 07:15:01;;;;;;;5.30;3.00;;;;;;;19.29;100.00;100549.63;4977330;28;20492;-78
2023/07/29 07:17:28;;;;;;;3.97;2.63;;;;;;;19.23;100.00;100541.84;4985460;28;20050;-79
2023/07/29 07:19:56;;;;;;;6.47;3.28;;;;;;;19.18;100.00;100544.66;4995874;28;20050;-78
2023/07/29 07:22:24;;;;;;;6.18;2.67;;;;;;;19.19;100.00;100545.56;5000872;28;20499;-79
2023/07/29 07:24:51;;;;;;;6.85;2.80;;;;;;;19.21;100.00;100538.38;5001986;28;20265;-79
2023/07/29 07:27:18;;;;;;;5.93;2.80;;;;;;;19.20;100.00;100540.13;4987233;28;20045;-78
2023/07/29 07:29:46;;;;;;;8.65;3.00;;;;;;;19.24;100.00;100538.22;4964802;28;20750;-81
2023/07/29 07:32:13;;;;;;;8.00;3.15;;;;;;;19.30;100.00;100548.69;4999619;28;20058;-79
2023/07/29 07:34:41;;;;;;;6.22;2.70;;;;;;;19.37;100.00;100544.84;5014631;28;20060;-79
2023/07/29 07:37:08;;;;;;;6.38;2.88;;;;;;;19.43;100.00;100531.28;5012367;28;20050;-79
2023/07/29 07:39:37;;;;;;;5.03;2.85;;;;;;;19.45;100.00;100540.09;5013269;28;20097;-79
2023/07/29 07:42:04;;;;;;;7.53;3.42;;;;;;;19.44;100.00;100540.16;4995338;28;20353;-79
2023/07/29 07:44:32;;;;;;;4.00;2.53;;;;;;;19.44;100.00;100538.34;4969502;28;20045;-79
2023/07/29 07:47:00;;;;;;;9.15;3.65;;;;;;;19.43;100.00;100549.97;5020041;28;20092;-79
2023/07/29 07:49:31;;;;;;;6.00;3.20;;;;;;;19.40;100.00;100550.09;5012800;28;20061;-78
2023/07/29 07:51:58;;;;;;;4.88;2.63;;;;;;;19.38;100.00;100541.25;4990330;28;20332;-79
2023/07/29 07:54:26;;;;;;;5.82;3.35;;;;;;;19.36;100.00;100553.81;5007494;28;20058;-78
2023/07/29 07:56:54;;;;;;;5.50;3.22;;;;;;;19.36;100.00;100552.94;5009665;28;20049;-79
2023/07/29 07:59:21;;;;;;;5.32;2.92;;;;;;;19.33;100.00;100551.25;4995112;28;20049;-78
2023/07/29 08:01:49;;;;;;;6.18;2.85;;;;;;;19.25;100.00;100553.34;5006623;28;20037;-79
2023/07/29 08:04:16;;;;;;;5.80;2.47;;;;;;;19.21;100.00;100555.25;5029436;28;20695;-79
2023/07/29 08:06:44;;;;;;;4.95;3.13;;;;;;;19.20;100.00;100571.31;5027331;28;20056;-79
2023/07/29 08:09:12;;;;;;;5.38;2.95;;;;;;;19.18;100.00;100565.16;5029541;28;20049;-79
2023/07/29 08:11:39;;;;;;;4.15;2.88;;;;;;;19.18;100.00;100563.38;5025197;28;20063;-78
2023/07/29 08:14:07;;;;;;;7.22;2.78;;;;;;;19.20;100.00;100555.31;5018332;28;20073;-78
2023/07/29 08:16:34;;;;;;;6.60;2.80;;;;;;;19.24;100.00;100555.16;5003948;28;20791;-79
2023/07/29 08:19:02;;;;;;;3.15;2.72;;;;;;;19.29;100.00;100555.81;5027867;28;20072;-79
2023/07/29 08:21:30;;;;;;;7.32;3.33;;;;;;;19.32;100.00;100560.19;5030297;28;20053;-79
2023/07/29 08:23:57;;;;;;;5.20;2.72;;;;;;;19.37;100.00;100566.22;5029132;28;20050;-79
2023/07/29 08:26:25;;;;;;;4.75;2.85;;;;;;;19.36;100.00;100555.63;5005601;28;20064;-79
2023/07/29 08:28:52;;;;;;;7.65;3.00;;;;;;;19.38;100.00;100562.63;5029718;28;20096;-79
2023/07/29 08:31:21;;;;;;;4.68;3.05;;;;;;;19.46;100.00;100563.19;4987363;28;20049;-78
2023/07/29 08:33:49;;;;;;;7.00;2.55;;;;;;;19.54;100.00;100559.38;5023629;28;20053;-78
2023/07/29 08:36:16;;;;;;;6.45;3.10;;;;;;;19.66;100.00;100565.13;5008359;28;20048;-78
2023/07/29 08:38:44;;;;;;;5.85;2.40;;;;;;;19.86;100.00;100567.00;5023370;28;20169;-79
2023/07/29 08:41:19;;;;;;;5.82;2.65;;;;;;;20.04;100.00;100561.88;5008922;28;20049;-80
2023/07/29 08:44:18;;;;;;;6.57;2.53;;;;;;;20.24;100.00;100555.69;5018643;28;20058;-79
2023/07/29 08:46:46;;;;;;;7.22;2.58;;;;;;;20.44;100.00;100555.72;4995126;28;20065;-77
2023/07/29 08:49:18;;;;;;;4.73;2.37;;;;;;;20.56;100.00;100554.31;5024620;28;20423;-78
2023/07/29 08:51:48;;;;;;;7.60;2.50;;;;;;;20.67;100.00;100555.72;5008940;28;20049;-77
2023/07/29 08:54:16;;;;;;;3.45;2.60;;;;;;;20.69;100.00;100559.19;5010442;28;20066;-77
2023/07/29 08:56:44;;;;;;;8.77;2.55;;;;;;;20.69;100.00;100553.84;5021401;28;20775;-78
2023/07/29 08:59:13;;;;;;;5.88;2.47;;;;;;;20.66;100.00;100559.31;5040874;28;20507;-78
2023/07/29 09:01:41;;;;;;;4.93;2.47;;;;;;;20.59;100.00;100562.25;4974692;28;20049;-79
2023/07/29 09:04:09;;;;;;;4.00;2.33;;;;;;;20.54;100.00;100553.53;5012641;28;20092;-79
2023/07/29 09:06:38;;;;;;;4.57;2.42;;;;;;;20.51;100.00;100561.72;5025791;28;20407;-81
2023/07/29 09:09:08;;;;;;;3.28;2.10;;;;;;;20.45;100.00;100568.19;5021749;28;20046;-79
2023/07/29 09:11:36;;;;;;;7.55;2.63;;;;;;;20.44;100.00;100560.22;5017823;28;20053;-80
2023/07/29 09:14:03;;;;;;;3.92;2.30;;;;;;;20.45;100.00;100553.91;5007550;28;20045;-80
2023/07/29 09:16:32;;;;;;;2.85;2.05;;;;;;;20.51;100.00;100551.00;4990486;28;20060;-80
2023/07/29 09:19:03;;;;;;;3.58;2.38;;;;;;;20.60;100.00;100561.34;5013180;28;20041;-80
2023/07/29 09:21:31;;;;;;;5.57;2.58;;;;;;;20.75;100.00;100556.25;5022663;28;20125;-80
2023/07/29 09:24:04;;;;;;;3.85;1.98;;;;;;;20.98;100.00;100557.91;5021247;28;20045;-81
2023/07/29 09:26:31;;;;;;;4.32;1.98;;;;;;;21.15;100.00;100557.16;5020545;28;20058;-80
2023/07/29 09:29:00;;;;;;;3.55;1.95;;;;;;;21.23;100.00;100544.28;5021507;28;20405;-81
2023/07/29 09:31:29;;;;;;;3.25;2.10;;;;;;;21.29;100.00;100543.13;5014021;28;20061;-80
2023/07/29 09:33:58;;;;;;;5.28;1.90;;;;;;;21.36;100.00;100536.53;4969639;28;20053;-80
2023/07/29 09:36:27;;;;;;;4.88;2.25;;;;;;;21.50;100.00;100535.94;5028665;28;20049;-80
2023/07/29 09:38:56;;;;;;;7.22;1.77;;;;;;;21.54;100.00;100533.03;5019643;28;20076;-79
2023/07/29 09:41:25;;;;;;;4.80;2.22;;;;;;;21.58;100.00;100533.75;5032275;28;20042;-79
2023/07/29 09:44:01;;;;;;;2.92;2.03;;;;;;;21.53;100.00;100536.66;5026245;28;20065;-80
2023/07/29 09:46:35;;;;;;;6.07;2.45;;;;;;;21.47;100.00;100538.75;5034638;28;20053;-80
2023/07/29 09:49:05;;;;;;;4.63;1.92;;;;;;;21.40;100.00;100543.50;5005626;28;20080;-79
2023/07/29 09:51:39;;;;;;;4.13;1.90;;;;;;;21.37;100.00;100549.00;5042587;28;20434;-79
2023/07/29 09:54:07;;;;;;;3.95;1.88;;;;;;;21.39;100.00;100544.44;5014563;28;20911;-80
2023/07/29 09:56:41;;;;;;;5.82;2.42;;;;;;;21.39;100.00;100553.34;5031287;28;20522;-80
2023/07/29 09:59:09;;;;;;;4.40;2.00;;;;;;;21.31;100.00;100557.34;5016249;28;20061;-77
2023/07/29 10:01:37;;;;;;;3.05;1.65;;;;;;;21.19;100.00;100558.75;5009753;28;20441;-77
2023/07/29 10:04:06;;;;;;;5.13;2.20;;;;;;;21.16;100.00;100564.25;5002176;28;20052;-78
2023/07/29 10:06:38;;;;;;;6.07;2.28;;;;;;;21.18;100.00;100562.38;5016591;28;20076;-78
2023/07/29 10:09:06;;;;;;;2.78;1.50;;;;;;;21.33;100.00;100553.63;5019333;28;20052;-78
2023/07/29 10:11:34;;;;;;;4.63;1.75;;;;;;;21.54;100.00;100549.09;5012675;28;20081;-78
2023/07/29 10:14:02;;;;;;;4.32;1.52;;;;;;;21.73;100.00;100546.41;5023024;28;20093;-77
2023/07/29 10:16:37;;;;;;;3.13;1.88;;;;;;;21.90;100.00;100542.91;5009920;28;20526;-78
2023/07/29 10:19:06;;;;;;;;;;;;;;;22.07;100.00;100539.41;5013411;28;20052;-77
2023/07/29 10:21:36;;;;;;;2.58;1.15;;;;;;;22.22;100.00;100548.50;4990810;28;19930;-77
2023/07/29 10:24:09;;;;;;;3.78;1.77;;;;;;;22.28;100.00;100537.50;5031222;28;20046;-77
2023/07/29 10:26:39;;;;;;;3.67;1.27;;;;;;;22.27;100.00;100535.78;5034208;28;20061;-76
2023/07/29 10:29:12;;;;;;;3.97;1.50;;;;;;;22.26;100.00;100538.53;5016989;28;20053;-77
2023/07/29 10:31:43;;;;;;;1.90;1.20;;;;;;;22.17;100.00;100532.66;5035480;28;20364;-77
2023/07/29 10:34:13;;;;;;;2.15;1.27;;;;;;;22.14;100.00;100532.78;5018963;28;20369;-77
2023/07/29 10:36:41;;;;;;;;;;;;;;;22.26;100.00;100533.16;4994295;28;20054;-76
2023/07/29 10:39:10;;;;;;;2.55;1.27;;;;;;;22.37;100.00;100525.44;5032258;28;19919;-77
2023/07/29 10:41:57;;;;;;;1.87;1.17;;;;;;;22.42;100.00;100535.91;5016711;28;20057;-78
2023/07/29 10:44:43;;;;;;;3.70;1.42;;;;;;;22.30;100.00;100526.69;4995327;28;20057;-77
2023/07/29 10:47:16;;;;;;;2.45;1.15;;;;;;;22.17;100.00;100526.38;5016220;28;20049;-77
2023/07/29 10:49:45;;;;;;;1.90;1.60;;;;;;;22.14;100.00;100526.56;5032906;28;20049;-76
2023/07/29 10:52:28;;;;;;;3.58;1.30;;;;;;;22.06;100.00;100523.38;4994572;28;20484;-78
2023/07/29 10:54:58;;;;;;;1.90;1.23;;;;;;;22.00;100.00;100524.53;5032218;28;20041;-76
2023/07/29 10:57:32;;;;;;;1.95;1.05;;;;;;;22.05;100.00;100527.03;5024373;28;20060;-76
2023/07/29 11:00:01;;;;;;;3.15;1.38;;;;;;;22.11;100.00;100521.34;5007254;28;20048;-77
2023/07/29 11:02:30;;;;;;;1.33;1.23;;;;;;;22.17;100.00;100516.56;5017035;28;20037;-78
2023/07/29 11:04:59;;;;;;;2.17;1.20;;;;;;;22.20;100.00;100515.50;5026865;28;20239;-78
2023/07/29 11:07:27;;;;;;;2.88;1.40;;;;;;;22.20;100.00;100516.38;5032373;28;20069;-78
2023/07/29 11:10:00;;;;;;;13.98;1.40;;;;;;;22.15;100.00;100518.41;4978608;28;20046;-77
2023/07/29 11:12:45;;;;;;;4.45;1.20;;;;;;;22.06;100.00;100518.91;5022226;28;20057;-77
2023/07/29 11:15:20;;;;;;;3.03;1.48;;;;;;;22.07;100.00;100517.09;5008173;28;23282;-77
2023/07/29 11:17:56;;;;;;;3.55;1.27;;;;;;;22.16;100.00;100516.63;5032235;28;20053;-77
2023/07/29 11:20:26;;;;;;;3.83;1.00;;;;;;;22.20;100.00;100513.69;5024043;28;20037;-77
2023/07/29 11:22:55;;;;;;;2.22;1.15;;;;;;;22.17;100.00;100526.38;5021943;28;20573;-78